Time;durP1;ratioP1;P1;durP2;ratioP2;P2;SDS_P1;SDS_P2;PMS_P1;PMS_P2;Temp;Humidity;BMP_temperature;BMP_pressure;BME280_temperature;BME280_humidity;BME280_pressure;Samples;Min_cycle;Max_cycle;Signal;HPM_P1;HPM_P2
2023/08/14 00:01:47;;;;;;;5.43;2.23;;;15.30;99.90;;;;;;5048601;28;20287;-77
2023/08/14 00:04:13;;;;;;;6.30;2.23;;;15.30;99.90;;;;;;5054710;28;20194;-77
2023/08/14 00:06:39;;;;;;;8.73;2.60;;;15.30;99.90;;;;;;5054649;28;20612;-77
2023/08/14 00:09:04;;;;;;;6.20;2.73;;;15.30;99.90;;;;;;5054064;28;20179;-77
2023/08/14 00:11:30;;;;;;;9.57;2.57;;;15.20;99.90;;;;;;5052499;28;20678;-76
2023/08/14 00:13:56;;;;;;;8.53;2.60;;;15.20;99.90;;;;;;5055090;28;20269;-77
2023/08/14 00:16:23;;;;;;;8.43;2.43;;;15.20;99.90;;;;;;5055060;28;20294;-77
2023/08/14 00:18:49;;;;;;;4.80;2.30;;;15.20;99.90;;;;;;5055053;28;20171;-77
2023/08/14 00:21:15;;;;;;;4.57;2.00;;;15.20;99.90;;;;;;5055455;28;20192;-77
2023/08/14 00:23:41;;;;;;;9.40;2.57;;;15.10;99.90;;;;;;5055070;28;20171;-77
2023/08/14 00:26:06;;;;;;;7.93;2.43;;;15.10;99.90;;;;;;5049958;28;20202;-77
2023/08/14 00:28:32;;;;;;;5.67;2.40;;;15.10;99.90;;;;;;5056643;28;20191;-77
2023/08/14 00:30:58;;;;;;;11.97;2.30;;;15.10;99.90;;;;;;5056728;28;20664;-77
2023/08/14 00:33:23;;;;;;;7.97;2.43;;;15.00;99.90;;;;;;5054551;28;20257;-77
2023/08/14 00:35:49;;;;;;;6.97;2.30;;;15.00;99.90;;;;;;5055047;28;20630;-77
2023/08/14 00:38:14;;;;;;;8.63;2.20;;;15.00;99.90;;;;;;5054727;28;20179;-77
2023/08/14 00:40:40;;;;;;;5.77;2.00;;;15.00;99.90;;;;;;5051248;28;20744;-77
2023/08/14 00:43:05;;;;;;;10.20;2.60;;;15.00;99.90;;;;;;5034466;28;20559;-77
2023/08/14 00:45:31;;;;;;;8.10;2.10;;;15.00;99.90;;;;;;5034436;28;20706;-77
2023/08/14 00:47:57;;;;;;;4.63;2.10;;;15.00;99.90;;;;;;5034914;28;20180;-77
2023/08/14 00:50:23;;;;;;;4.37;1.90;;;15.00;99.90;;;;;;5034483;28;20294;-77
2023/08/14 00:52:54;;;;;;;6.10;2.20;;;15.00;99.90;;;;;;5033500;28;20322;-76
2023/08/14 00:55:22;;;;;;;6.90;2.20;;;14.90;99.90;;;;;;5034428;28;20165;-77
2023/08/14 00:57:50;;;;;;;7.17;2.40;;;14.90;99.90;;;;;;5040676;28;20210;-77
2023/08/14 01:00:16;;;;;;;7.37;2.17;;;14.90;99.90;;;;;;5054144;28;20237;-77
2023/08/14 01:02:43;;;;;;;9.97;2.50;;;14.80;99.90;;;;;;5054183;28;20168;-77
2023/08/14 01:05:09;;;;;;;5.30;2.37;;;14.90;99.90;;;;;;5053816;28;20200;-77
2023/08/14 01:07:35;;;;;;;3.77;2.13;;;14.80;99.90;;;;;;5053940;28;20176;-77
2023/08/14 01:10:02;;;;;;;5.13;2.43;;;14.80;99.90;;;;;;5054016;28;20185;-77
2023/08/14 01:13:06;;;;;;;7.03;2.03;;;14.80;99.90;;;;;;5053468;28;20270;-77
2023/08/14 01:15:38;;;;;;;6.10;2.10;;;14.80;99.90;;;;;;5037477;28;20620;-78
2023/08/14 01:18:04;;;;;;;6.93;2.50;;;14.70;99.90;;;;;;5033889;28;20254;-77
2023/08/14 01:20:32;;;;;;;3.10;2.33;;;14.70;99.90;;;;;;5033903;28;20684;-77
2023/08/14 01:23:17;;;;;;;10.63;2.33;;;14.60;99.90;;;;;;5033422;28;20215;-77
2023/08/14 01:25:43;;;;;;;5.50;2.23;;;14.60;99.90;;;;;;5033448;28;20617;-76
2023/08/14 01:28:09;;;;;;;7.53;2.63;;;14.60;99.90;;;;;;5033354;28;20563;-77
2023/08/14 01:30:35;;;;;;;9.33;2.73;;;14.60;99.90;;;;;;5033330;28;20738;-78
2023/08/14 01:33:00;;;;;;;5.70;2.70;;;14.50;99.90;;;;;;5033577;28;20192;-77
2023/08/14 01:35:34;;;;;;;6.90;2.20;;;14.60;99.90;;;;;;5033360;28;20175;-77
2023/08/14 01:38:08;;;;;;;4.17;2.37;;;14.50;99.90;;;;;;5035410;28;20269;-77
2023/08/14 01:41:06;;;;;;;8.80;2.47;;;14.50;99.90;;;;;;5033190;28;20195;-77
2023/08/14 01:43:47;;;;;;;8.67;2.30;;;14.40;99.90;;;;;;5021376;28;20271;-77
2023/08/14 01:46:15;;;;;;;10.90;2.90;;;14.40;99.90;;;;;;5044940;28;20195;-77
2023/08/14 01:48:41;;;;;;;5.83;2.30;;;14.40;99.90;;;;;;5053419;28;20179;-76
2023/08/14 01:51:09;;;;;;;6.50;2.43;;;14.40;99.90;;;;;;5052833;28;20199;-77
2023/08/14 01:53:40;;;;;;;6.03;2.50;;;14.40;99.90;;;;;;5053495;28;20192;-76
2023/08/14 01:56:06;;;;;;;6.50;2.33;;;14.40;99.90;;;;;;5053539;28;20642;-77
2023/08/14 01:58:31;;;;;;;4.97;2.10;;;14.40;99.90;;;;;;5053116;28;20255;-77
2023/08/14 02:00:57;;;;;;;6.83;2.00;;;14.40;99.90;;;;;;5050970;28;20207;-77
2023/08/14 02:03:22;;;;;;;6.73;2.70;;;14.30;99.90;;;;;;5053325;28;20180;-77
2023/08/14 02:05:48;;;;;;;6.47;1.97;;;14.30;99.90;;;;;;5051496;28;20184;-77
2023/08/14 02:08:13;;;;;;;9.27;2.63;;;14.30;99.90;;;;;;5053220;28;20183;-77
2023/08/14 02:10:39;;;;;;;5.67;2.10;;;14.30;99.90;;;;;;5052898;28;20568;-77
2023/08/14 02:13:04;;;;;;;5.90;2.53;;;14.30;99.90;;;;;;5052999;28;20666;-77
2023/08/14 02:15:30;;;;;;;8.13;2.30;;;14.30;99.90;;;;;;5052934;28;20179;-77
2023/08/14 02:17:57;;;;;;;5.53;2.07;;;14.30;99.90;;;;;;5050791;28;20184;-77
2023/08/14 02:20:24;;;;;;;7.30;2.20;;;14.30;99.90;;;;;;5052825;28;20229;-77
2023/08/14 02:22:49;;;;;;;8.97;2.17;;;14.20;99.90;;;;;;5053592;28;20644;-77
2023/08/14 02:25:15;;;;;;;6.43;2.27;;;14.20;99.90;;;;;;5056355;28;20184;-77
2023/08/14 02:27:40;;;;;;;9.00;2.13;;;14.20;99.90;;;;;;5056631;28;20211;-77
2023/08/14 02:30:07;;;;;;;7.90;2.50;;;14.20;99.90;;;;;;5056926;28;20164;-77
2023/08/14 02:32:32;;;;;;;8.17;2.27;;;14.20;99.90;;;;;;5054246;28;20203;-77
2023/08/14 02:34:58;;;;;;;7.83;2.53;;;14.10;99.90;;;;;;5056283;28;20195;-77
2023/08/14 02:37:23;;;;;;;5.17;2.07;;;14.10;99.90;;;;;;5056817;28;20214;-77
2023/08/14 02:39:49;;;;;;;6.27;2.47;;;14.10;99.90;;;;;;5058217;28;20183;-77
2023/08/14 02:42:16;;;;;;;8.33;2.10;;;14.10;99.90;;;;;;5059450;28;20275;-78
2023/08/14 02:44:41;;;;;;;8.20;2.83;;;14.10;99.90;;;;;;5056502;28;20175;-77
2023/08/14 02:47:07;;;;;;;6.73;2.00;;;14.00;99.90;;;;;;5056024;28;20199;-77
2023/08/14 02:49:33;;;;;;;4.77;2.20;;;14.00;99.90;;;;;;5047664;28;20542;-77
2023/08/14 02:51:59;;;;;;;9.03;2.63;;;14.00;99.90;;;;;;5036198;28;20199;-77
2023/08/14 02:54:26;;;;;;;6.60;2.47;;;14.00;99.90;;;;;;5036502;28;20207;-78
2023/08/14 02:56:51;;;;;;;6.13;2.23;;;14.00;99.90;;;;;;5036041;28;20168;-77
2023/08/14 02:59:17;;;;;;;4.40;2.33;;;14.20;99.90;;;;;;5051817;28;20561;-77
2023/08/14 03:01:43;;;;;;;7.50;2.10;;;14.00;99.90;;;;;;5055196;28;20261;-77
2023/08/14 03:04:08;;;;;;;6.93;1.83;;;13.90;99.90;;;;;;5054638;28;20605;-77
2023/08/14 03:06:34;;;;;;;7.37;2.07;;;13.90;99.90;;;;;;5056093;28;20190;-77
2023/08/14 03:09:00;;;;;;;3.93;2.03;;;13.90;99.90;;;;;;5055929;28;20282;-77
2023/08/14 03:11:26;;;;;;;7.20;2.10;;;13.90;99.90;;;;;;5054203;28;20209;-77
2023/08/14 03:13:52;;;;;;;7.90;2.40;;;13.90;99.90;;;;;;5055731;28;20196;-77
2023/08/14 03:16:18;;;;;;;7.80;2.30;;;13.90;99.90;;;;;;5054433;28;20262;-77
2023/08/14 03:18:43;;;;;;;8.00;2.50;;;13.90;99.90;;;;;;5055859;28;20576;-77
2023/08/14 03:21:09;;;;;;;9.80;2.47;;;13.90;99.90;;;;;;5055483;28;20188;-77
2023/08/14 03:23:35;;;;;;;9.53;2.20;;;13.90;99.90;;;;;;5054882;28;20650;-77
2023/08/14 03:26:02;;;;;;;5.30;2.00;;;13.80;99.90;;;;;;5055662;28;20314;-77
2023/08/14 03:28:28;;;;;;;4.70;2.13;;;13.80;99.90;;;;;;5049126;28;20196;-77
2023/08/14 03:30:53;;;;;;;4.93;2.50;;;13.70;99.90;;;;;;5035146;28;20599;-77
2023/08/14 03:33:19;;;;;;;10.63;3.10;;;13.70;99.90;;;;;;5035056;28;20231;-77
2023/08/14 03:35:45;;;;;;;4.87;2.00;;;13.50;99.90;;;;;;5035262;28;20257;-77
2023/08/14 03:38:10;;;;;;;5.17;2.00;;;13.60;99.90;;;;;;5035187;28;20184;-77
2023/08/14 03:40:36;;;;;;;5.33;2.30;;;13.70;99.90;;;;;;5035031;28;20210;-77
2023/08/14 03:43:02;;;;;;;7.53;2.30;;;13.60;99.90;;;;;;5034819;28;20171;-77
2023/08/14 03:45:27;;;;;;;8.23;2.30;;;13.60;99.90;;;;;;5035909;28;20184;-77
2023/08/14 03:47:53;;;;;;;5.57;2.57;;;13.90;99.90;;;;;;5034773;28;20612;-76
2023/08/14 03:50:18;;;;;;;5.10;2.20;;;13.60;99.90;;;;;;5035061;28;20168;-77
2023/08/14 03:52:44;;;;;;;4.13;1.77;;;13.60;99.90;;;;;;5035032;28;20242;-77
2023/08/14 03:55:10;;;;;;;10.43;2.30;;;13.60;99.90;;;;;;5034979;28;20207;-77
2023/08/14 03:57:35;;;;;;;4.13;2.03;;;13.60;99.90;;;;;;5034857;28;20234;-77
2023/08/14 04:00:01;;;;;;;7.40;2.40;;;13.60;99.90;;;;;;5040144;28;20176;-76
2023/08/14 04:02:26;;;;;;;4.93;2.30;;;13.60;99.90;;;;;;5053012;28;20207;-77
2023/08/14 04:04:52;;;;;;;4.10;2.40;;;13.60;99.90;;;;;;5054604;28;20175;-76
2023/08/14 04:07:17;;;;;;;10.40;2.23;;;13.50;99.90;;;;;;5054970;28;20705;-77
2023/08/14 04:09:43;;;;;;;5.17;2.13;;;13.60;99.90;;;;;;5054520;28;20237;-77
2023/08/14 04:12:09;;;;;;;14.40;2.43;;;13.50;99.90;;;;;;5054541;28;20215;-77
2023/08/14 04:14:35;;;;;;;7.00;2.17;;;13.60;99.90;;;;;;5054320;28;20196;-76
2023/08/14 04:17:01;;;;;;;6.07;2.23;;;13.60;99.90;;;;;;5046168;28;20690;-76
2023/08/14 04:19:27;;;;;;;11.80;3.40;;;13.50;99.90;;;;;;5034655;28;20179;-77
2023/08/14 04:21:52;;;;;;;6.03;2.10;;;13.50;99.90;;;;;;5034612;28;20208;-77
2023/08/14 04:24:18;;;;;;;6.60;2.53;;;13.40;99.90;;;;;;5034655;28;20180;-77
2023/08/14 04:26:43;;;;;;;7.10;2.30;;;13.40;99.90;;;;;;5035148;28;20208;-77
2023/08/14 04:29:10;;;;;;;5.37;2.27;;;13.60;99.90;;;;;;5034468;28;20188;-77
2023/08/14 04:31:39;;;;;;;6.23;2.30;;;13.50;99.90;;;;;;5034544;28;20200;-77
2023/08/14 04:34:06;;;;;;;5.50;2.07;;;13.40;99.90;;;;;;5034320;28;20208;-76
2023/08/14 04:36:32;;;;;;;10.17;3.37;;;13.40;99.90;;;;;;5034633;28;20551;-75
2023/08/14 04:38:59;;;;;;;7.47;2.63;;;13.50;99.90;;;;;;5037801;28;20176;-76
2023/08/14 04:41:25;;;;;;;7.43;2.30;;;13.50;99.90;;;;;;5036559;28;20192;-76
2023/08/14 04:43:51;;;;;;;11.13;2.57;;;13.50;99.90;;;;;;5036433;28;20226;-76
2023/08/14 04:46:38;;;;;;;8.70;2.30;;;13.50;99.90;;;;;;5035340;28;20275;-76
2023/08/14 04:49:04;;;;;;;6.30;2.10;;;13.50;99.90;;;;;;5034237;28;20187;-76
2023/08/14 04:51:30;;;;;;;8.70;2.40;;;13.50;99.90;;;;;;5033770;28;20758;-77
2023/08/14 04:53:58;;;;;;;6.07;2.43;;;13.60;99.90;;;;;;5034204;28;20611;-76
2023/08/14 04:56:24;;;;;;;5.83;2.57;;;13.50;99.90;;;;;;5036275;28;20172;-76
2023/08/14 04:58:50;;;;;;;7.07;2.73;;;13.50;99.90;;;;;;5034747;28;20784;-76
2023/08/14 05:01:16;;;;;;;10.77;2.50;;;13.50;99.90;;;;;;5037102;28;20188;-75
2023/08/14 05:03:41;;;;;;;5.77;2.27;;;13.50;99.90;;;;;;5035738;28;20252;-76
2023/08/14 05:06:07;;;;;;;5.23;2.50;;;13.50;99.90;;;;;;5036321;28;20176;-76
2023/08/14 05:08:33;;;;;;;10.80;2.77;;;13.50;99.90;;;;;;5036178;28;20172;-76
2023/08/14 05:10:58;;;;;;;6.47;2.23;;;13.50;99.90;;;;;;5036112;28;20192;-76
2023/08/14 05:13:24;;;;;;;7.33;2.33;;;13.50;99.90;;;;;;5035376;28;20196;-76
2023/08/14 05:15:51;;;;;;;5.53;2.20;;;13.60;99.90;;;;;;5034752;28;20188;-76
2023/08/14 05:18:17;;;;;;;5.17;2.20;;;13.60;99.90;;;;;;5035216;28;20165;-76
2023/08/14 05:20:47;;;;;;;9.77;2.17;;;13.60;99.90;;;;;;5034492;28;20664;-76
2023/08/14 05:23:13;;;;;;;5.80;2.23;;;13.70;99.90;;;;;;5033467;28;20182;-76
2023/08/14 05:25:40;;;;;;;6.30;2.47;;;13.70;99.90;;;;;;5035071;28;20194;-77
2023/08/14 05:28:06;;;;;;;6.40;2.80;;;13.60;99.90;;;;;;5039868;28;20191;-76
2023/08/14 05:30:31;;;;;;;5.57;2.40;;;13.70;99.90;;;;;;5039224;28;20192;-77
2023/08/14 05:32:57;;;;;;;6.77;2.40;;;13.70;99.90;;;;;;5038129;28;20645;-76
2023/08/14 05:35:23;;;;;;;7.63;2.50;;;13.70;99.90;;;;;;5039392;28;20580;-77
2023/08/14 05:37:55;;;;;;;6.97;2.40;;;13.70;99.90;;;;;;5038611;28;20275;-76
2023/08/14 05:40:21;;;;;;;3.57;2.33;;;13.70;99.90;;;;;;5037964;28;20247;-76
2023/08/14 05:43:08;;;;;;;7.10;2.73;;;13.80;99.90;;;;;;5037854;28;20602;-76
2023/08/14 05:45:35;;;;;;;5.80;2.43;;;13.90;99.90;;;;;;5040290;28;20184;-76
2023/08/14 05:48:02;;;;;;;9.30;2.80;;;13.90;99.90;;;;;;5042236;28;20180;-77
2023/08/14 05:50:29;;;;;;;7.80;2.77;;;14.00;99.90;;;;;;5041315;28;20200;-77
2023/08/14 05:52:56;;;;;;;7.07;2.43;;;14.00;99.90;;;;;;5039813;28;20186;-76
2023/08/14 05:55:22;;;;;;;5.13;2.47;;;14.10;99.90;;;;;;5040310;28;20224;-76
2023/08/14 05:57:48;;;;;;;11.80;2.87;;;14.10;99.90;;;;;;5043978;28;20175;-77
2023/08/14 06:00:14;;;;;;;4.67;2.73;;;14.20;99.90;;;;;;5042827;28;20251;-76
2023/08/14 06:02:43;;;;;;;6.30;2.53;;;14.30;99.90;;;;;;5043038;28;20169;-76
2023/08/14 06:05:08;;;;;;;4.67;2.50;;;14.30;99.90;;;;;;5041177;28;20187;-77
2023/08/14 06:07:35;;;;;;;6.93;2.77;;;14.40;99.90;;;;;;5043038;28;20177;-77
2023/08/14 06:10:04;;;;;;;9.80;2.53;;;14.50;99.90;;;;;;5044486;28;20566;-76
2023/08/14 06:12:30;;;;;;;10.13;2.90;;;14.60;99.90;;;;;;5043040;28;20280;-76
2023/08/14 06:14:56;;;;;;;5.90;2.80;;;14.60;99.90;;;;;;5043948;28;20228;-77
2023/08/14 06:17:21;;;;;;;6.30;2.83;;;14.70;99.90;;;;;;5041606;28;20185;-77
2023/08/14 06:19:47;;;;;;;5.87;3.13;;;14.90;99.90;;;;;;5043373;28;20652;-76
2023/08/14 06:22:12;;;;;;;7.70;3.50;;;14.90;99.90;;;;;;5044924;28;20188;-77
2023/08/14 06:24:38;;;;;;;9.13;3.83;;;15.00;99.90;;;;;;5044676;28;20591;-76
2023/08/14 06:27:03;;;;;;;11.93;4.30;;;15.10;99.90;;;;;;5043833;28;20175;-77
2023/08/14 06:29:29;;;;;;;5.43;3.67;;;15.30;99.90;;;;;;5043940;28;20262;-77
2023/08/14 06:31:56;;;;;;;8.77;3.90;;;15.40;99.90;;;;;;5042836;28;20687;-76
2023/08/14 06:34:22;;;;;;;13.17;4.70;;;15.50;99.90;;;;;;5042604;28;20188;-76
2023/08/14 06:36:47;;;;;;;7.67;4.23;;;15.60;99.90;;;;;;5042522;28;20259;-76
2023/08/14 06:39:13;;;;;;;11.60;4.23;;;15.70;99.90;;;;;;5042922;28;20183;-76
2023/08/14 06:41:38;;;;;;;6.23;3.87;;;15.80;99.90;;;;;;5042899;28;20184;-76
2023/08/14 06:44:08;;;;;;;5.17;3.97;;;15.90;99.90;;;;;;5044106;28;20170;-77
2023/08/14 06:46:34;;;;;;;8.60;4.00;;;16.00;99.90;;;;;;5043922;28;20173;-77
2023/08/14 06:48:59;;;;;;;10.87;4.50;;;16.10;99.90;;;;;;5044283;28;20679;-76
2023/08/14 06:51:25;;;;;;;12.67;4.90;;;16.20;99.90;;;;;;5041697;28;20196;-77
2023/08/14 06:53:51;;;;;;;7.53;3.83;;;16.40;99.90;;;;;;5041733;28;20255;-77
2023/08/14 06:56:16;;;;;;;14.57;4.50;;;16.50;99.90;;;;;;5041094;28;20176;-76
2023/08/14 06:58:42;;;;;;;9.17;4.30;;;16.50;99.90;;;;;;5042111;28;20184;-77
2023/08/14 07:01:07;;;;;;;12.17;4.10;;;16.60;99.90;;;;;;5041401;28;20192;-77
2023/08/14 07:03:33;;;;;;;19.30;4.40;;;16.70;99.90;;;;;;5038396;28;20314;-77
2023/08/14 07:05:58;;;;;;;11.03;3.97;;;16.80;99.90;;;;;;5037528;28;20180;-77
2023/08/14 07:08:24;;;;;;;8.20;3.83;;;16.80;99.90;;;;;;5038103;28;20180;-77
2023/08/14 07:10:50;;;;;;;4.80;3.20;;;16.90;99.90;;;;;;5039021;28;20204;-77
2023/08/14 07:13:15;;;;;;;9.47;4.00;;;16.90;99.90;;;;;;5038454;28;20543;-76
2023/08/14 07:15:41;;;;;;;13.23;3.67;;;16.90;99.90;;;;;;5035564;28;20267;-76
2023/08/14 07:18:08;;;;;;;6.37;3.10;;;17.00;99.90;;;;;;5037013;28;20169;-77
2023/08/14 07:20:33;;;;;;;5.67;3.47;;;17.00;99.90;;;;;;5035479;28;20196;-77
2023/08/14 07:22:59;;;;;;;8.87;3.37;;;17.10;99.90;;;;;;5035952;28;20199;-76
2023/08/14 07:25:25;;;;;;;9.33;3.30;;;17.20;99.90;;;;;;5037108;28;20169;-77
2023/08/14 07:27:51;;;;;;;7.27;3.13;;;17.20;99.90;;;;;;5035313;28;20224;-76
2023/08/14 07:30:16;;;;;;;8.90;2.90;;;17.30;99.90;;;;;;5037627;28;20672;-77
2023/08/14 07:32:42;;;;;;;8.30;3.40;;;17.30;99.90;;;;;;5037550;28;20187;-77
2023/08/14 07:35:08;;;;;;;9.00;3.53;;;17.40;99.90;;;;;;5037927;28;20258;-77
2023/08/14 07:37:33;;;;;;;6.83;3.07;;;17.50;99.90;;;;;;5038005;28;20173;-77
2023/08/14 07:39:59;;;;;;;8.30;3.23;;;17.50;99.90;;;;;;5037847;28;20180;-77
2023/08/14 07:42:24;;;;;;;6.07;3.10;;;17.60;99.90;;;;;;5037711;28;20342;-76
2023/08/14 07:44:51;;;;;;;8.47;3.90;;;17.60;99.90;;;;;;5037596;28;20179;-77
2023/08/14 07:47:16;;;;;;;10.97;3.50;;;17.70;99.90;;;;;;5035941;28;20176;-77
2023/08/14 07:49:42;;;;;;;9.27;3.30;;;17.80;99.90;;;;;;5036481;28;20183;-77
2023/08/14 07:52:09;;;;;;;9.93;3.33;;;17.90;99.90;;;;;;5037486;28;20196;-77
2023/08/14 07:54:34;;;;;;;9.53;3.57;;;17.80;99.90;;;;;;5037903;28;20234;-76
2023/08/14 07:57:00;;;;;;;5.73;2.90;;;17.80;99.90;;;;;;5038098;28;20176;-77
2023/08/14 07:59:25;;;;;;;5.50;3.03;;;17.90;99.90;;;;;;5036730;28;20181;-77
2023/08/14 08:01:51;;;;;;;9.87;3.40;;;17.90;99.90;;;;;;5037890;28;20192;-77
2023/08/14 08:04:16;;;;;;;8.43;3.30;;;17.90;99.90;;;;;;5038298;28;20234;-77
2023/08/14 08:06:42;;;;;;;7.67;3.13;;;18.00;99.90;;;;;;5038019;28;20180;-77
2023/08/14 08:09:08;;;;;;;6.67;2.87;;;18.00;99.90;;;;;;5037070;28;20275;-77
2023/08/14 08:11:33;;;;;;;7.90;2.97;;;18.00;99.90;;;;;;5036026;28;20202;-77
2023/08/14 08:14:05;;;;;;;6.13;2.70;;;18.00;99.90;;;;;;5037625;28;20602;-77
2023/08/14 08:16:34;;;;;;;9.23;3.27;;;18.10;99.90;;;;;;5035733;28;20176;-77
2023/08/14 08:19:04;;;;;;;8.83;3.00;;;18.10;99.90;;;;;;5037110;28;20195;-77
2023/08/14 08:21:30;;;;;;;9.73;3.57;;;18.10;99.90;;;;;;5035356;28;20196;-77
2023/08/14 08:23:56;;;;;;;7.70;2.53;;;18.20;99.90;;;;;;5036327;28;20640;-77
2023/08/14 08:26:22;;;;;;;9.20;3.03;;;18.20;99.90;;;;;;5037746;28;20176;-76
2023/08/14 08:28:47;;;;;;;5.93;2.83;;;18.50;99.90;;;;;;5037002;28;20187;-77
2023/08/14 08:31:14;;;;;;;5.50;2.47;;;18.40;99.90;;;;;;5037775;28;20663;-77
2023/08/14 08:33:39;;;;;;;4.60;2.37;;;18.50;99.90;;;;;;5038040;28;20247;-77
2023/08/14 08:36:05;;;;;;;5.20;2.23;;;18.50;99.90;;;;;;5036772;28;20632;-77
2023/08/14 08:38:30;;;;;;;5.10;2.07;;;18.60;99.90;;;;;;5036156;28;20176;-77
2023/08/14 08:40:59;;;;;;;7.63;2.40;;;18.60;99.90;;;;;;5037049;28;20185;-77
2023/08/14 08:43:25;;;;;;;7.27;2.60;;;18.60;99.90;;;;;;5037924;28;20172;-77
2023/08/14 08:45:55;;;;;;;9.60;2.97;;;18.80;99.90;;;;;;5037044;28;20258;-77
2023/08/14 08:48:22;;;;;;;5.70;2.30;;;18.90;99.90;;;;;;5035656;28;20176;-77
2023/08/14 08:50:49;;;;;;;6.77;2.40;;;18.90;99.90;;;;;;5035555;28;20277;-77
2023/08/14 08:53:20;;;;;;;6.13;2.53;;;19.00;99.90;;;;;;5036567;28;20165;-77
2023/08/14 08:55:47;;;;;;;9.43;2.60;;;19.10;99.90;;;;;;5037147;28;20613;-77
2023/08/14 08:58:15;;;;;;;8.87;2.17;;;19.20;99.90;;;;;;5035986;28;20165;-77
2023/08/14 09:00:43;;;;;;;11.97;2.60;;;19.30;99.90;;;;;;5036506;28;20205;-77
2023/08/14 09:03:08;;;;;;;8.23;2.63;;;19.50;99.90;;;;;;5052097;28;20247;-77
2023/08/14 09:05:35;;;;;;;7.07;2.47;;;19.50;99.90;;;;;;5055142;28;20191;-77
2023/08/14 09:08:01;;;;;;;5.03;2.20;;;19.60;99.90;;;;;;5056676;28;20655;-77
2023/08/14 09:10:28;;;;;;;3.83;1.90;;;19.70;99.90;;;;;;5057285;28;20163;-77
2023/08/14 09:12:55;;;;;;;7.90;2.43;;;19.70;99.90;;;;;;5057228;28;20217;-77
2023/08/14 09:15:23;;;;;;;8.23;2.17;;;19.80;99.90;;;;;;5057401;28;20210;-77
2023/08/14 09:17:51;;;;;;;6.60;2.00;;;19.80;99.90;;;;;;5053488;28;20180;-77
2023/08/14 09:20:18;;;;;;;8.47;1.87;;;20.10;99.90;;;;;;5037077;28;20207;-77
2023/08/14 09:22:44;;;;;;;6.80;2.10;;;20.10;99.90;;;;;;5037587;28;20172;-77
2023/08/14 09:25:10;;;;;;;4.77;1.87;;;20.10;99.90;;;;;;5035931;28;20614;-76
2023/08/14 09:27:37;;;;;;;5.87;2.23;;;20.00;99.90;;;;;;5034923;28;20539;-77
2023/08/14 09:30:05;;;;;;;9.27;2.13;;;20.30;99.90;;;;;;5037253;28;20194;-77
2023/08/14 09:32:31;;;;;;;7.20;2.43;;;20.30;1.00;;;;;;5035460;28;20204;-77
2023/08/14 09:35:01;;;;;;;5.50;1.93;;;20.40;1.00;;;;;;5036657;28;20207;-77
2023/08/14 09:37:27;;;;;;;4.87;1.93;;;20.50;1.00;;;;;;5034800;28;20176;-77
2023/08/14 09:40:12;;;;;;;4.23;2.10;;;20.40;1.00;;;;;;5035070;28;20173;-77
2023/08/14 09:42:38;;;;;;;7.93;2.50;;;20.70;1.00;;;;;;5035344;28;20148;-77
2023/08/14 09:45:04;;;;;;;6.40;2.13;;;20.80;1.00;;;;;;5035650;28;20609;-77
2023/08/14 09:47:31;;;;;;;7.47;2.30;;;20.90;99.90;;;;;;5034931;28;20182;-77
2023/08/14 09:49:58;;;;;;;5.87;1.90;;;21.00;99.90;;;;;;5035713;28;20267;-77
2023/08/14 09:52:24;;;;;;;5.30;2.00;;;21.00;1.00;;;;;;5034517;28;20195;-77
2023/08/14 09:54:50;;;;;;;3.70;1.40;;;21.00;1.00;;;;;;5035584;28;20275;-77
2023/08/14 09:57:16;;;;;;;5.60;1.97;;;21.10;99.90;;;;;;5033882;28;20176;-77
2023/08/14 09:59:42;;;;;;;6.30;2.10;;;21.10;99.90;;;;;;5052492;28;20214;-77
2023/08/14 10:02:16;;;;;;;5.83;2.10;;;21.10;99.90;;;;;;5041374;28;20203;-77
2023/08/14 10:04:45;;;;;;;6.43;1.83;;;21.30;99.90;;;;;;5035677;28;20253;-77
2023/08/14 10:07:12;;;;;;;8.50;2.10;;;21.40;99.90;;;;;;5034997;28;20180;-76
2023/08/14 10:09:43;;;;;;;3.43;1.80;;;21.60;99.90;;;;;;5033489;28;20186;-76
2023/08/14 10:12:12;;;;;;;6.00;1.97;;;21.60;99.90;;;;;;5032635;28;20200;-76
2023/08/14 10:14:39;;;;;;;4.70;1.97;;;21.60;99.90;;;;;;5032764;28;20188;-76
2023/08/14 10:17:12;;;;;;;4.50;1.90;;;21.60;99.90;;;;;;5043963;28;20215;-77
2023/08/14 10:19:40;;;;;;;8.83;1.60;;;21.70;99.90;;;;;;5053332;28;20285;-76
2023/08/14 10:22:07;;;;;;;5.47;1.90;;;21.70;99.90;;;;;;5051478;28;20192;-76
2023/08/14 10:24:36;;;;;;;9.80;1.77;;;21.80;99.90;;;;;;5052939;28;20246;-76
2023/08/14 10:27:03;;;;;;;6.97;1.93;;;22.00;99.90;;;;;;5052730;28;20180;-77
2023/08/14 10:29:30;;;;;;;6.60;2.13;;;22.10;99.90;;;;;;5051267;28;20195;-76
2023/08/14 10:31:56;;;;;;;7.33;1.70;;;22.10;99.90;;;;;;5052822;28;20234;-76
2023/08/14 10:34:23;;;;;;;6.13;2.17;;;22.20;99.90;;;;;;5048937;28;20203;-77
2023/08/14 10:36:52;;;;;;;3.53;1.80;;;22.20;99.90;;;;;;5032886;28;20188;-76
2023/08/14 10:39:18;;;;;;;5.80;1.80;;;22.40;99.90;;;;;;5033264;28;20252;-76
2023/08/14 10:41:44;;;;;;;6.83;2.20;;;22.30;99.90;;;;;;5032728;28;20188;-77
2023/08/14 10:44:11;;;;;;;4.50;2.00;;;22.50;87.90;;;;;;5033472;28;20697;-76
2023/08/14 10:46:43;;;;;;;4.90;1.70;;;22.60;24.30;;;;;;5037559;28;20666;-76
2023/08/14 10:49:12;;;;;;;6.53;2.23;;;22.70;99.90;;;;;;5038619;28;20188;-76
2023/08/14 10:51:41;;;;;;;5.03;1.90;;;22.60;99.90;;;;;;5039569;28;20192;-76
2023/08/14 10:54:12;;;;;;;4.93;1.80;;;22.80;99.90;;;;;;5037871;28;20192;-76
2023/08/14 10:56:46;;;;;;;6.73;2.00;;;23.00;99.90;;;;;;5038864;28;20167;-76
2023/08/14 10:59:26;;;;;;;6.03;1.83;;;22.80;99.90;;;;;;5038875;28;20165;-76
2023/08/14 11:02:12;;;;;;;4.67;1.80;;;22.90;99.90;;;;;;5038781;28;20199;-76
2023/08/14 11:05:03;;;;;;;5.63;1.87;;;22.90;99.90;;;;;;5038952;28;20184;-76
2023/08/14 11:07:30;;;;;;;5.03;1.77;;;23.00;99.90;;;;;;5038681;28;20172;-77
2023/08/14 11:09:57;;;;;;;6.83;1.80;;;22.90;99.90;;;;;;5050019;28;20184;-77
2023/08/14 11:12:23;;;;;;;6.27;1.70;;;23.00;99.90;;;;;;5061252;28;20282;-76
2023/08/14 11:14:49;;;;;;;5.60;2.27;;;23.00;99.90;;;;;;5055725;28;20278;-76
2023/08/14 11:17:14;;;;;;;6.90;2.27;;;23.20;1.00;;;;;;5054996;28;20190;-76
2023/08/14 11:19:40;;;;;;;7.20;2.23;;;23.20;1.00;;;;;;5054214;28;20179;-76
2023/08/14 11:22:06;;;;;;;7.27;2.20;;;23.30;1.00;;;;;;5054853;28;20191;-76
2023/08/14 11:24:32;;;;;;;4.90;2.00;;;23.40;17.10;;;;;;5053722;28;20555;-76
2023/08/14 11:26:59;;;;;;;5.57;2.10;;;23.40;56.60;;;;;;5052150;28;20179;-77
2023/08/14 11:29:24;;;;;;;9.97;2.47;;;23.60;1.00;;;;;;5053263;28;20643;-77
2023/08/14 11:31:51;;;;;;;8.33;2.37;;;23.70;1.00;;;;;;5054933;28;20242;-76
2023/08/14 11:34:18;;;;;;;5.53;1.97;;;23.80;1.00;;;;;;5053682;28;20196;-76
2023/08/14 11:36:55;;;;;;;8.20;2.37;;;23.80;1.00;;;;;;5055525;28;20175;-77
2023/08/14 11:39:21;;;;;;;6.37;2.37;;;23.90;1.00;;;;;;5057154;28;20186;-77
2023/08/14 11:41:46;;;;;;;7.00;1.97;;;24.10;1.00;;;;;;5052563;28;20188;-77
2023/08/14 11:44:12;;;;;;;8.13;2.57;;;24.20;1.00;;;;;;5034483;28;20180;-78
2023/08/14 11:46:38;;;;;;;7.40;2.40;;;24.20;1.00;;;;;;5033946;28;20190;-76
2023/08/14 11:49:04;;;;;;;6.17;2.27;;;24.30;1.00;;;;;;5054508;28;20175;-76
2023/08/14 11:51:31;;;;;;;7.63;2.40;;;24.20;1.00;;;;;;5052912;28;20226;-76
2023/08/14 11:53:59;;;;;;;9.17;2.50;;;24.30;1.00;;;;;;5052889;28;20206;-77
2023/08/14 11:56:25;;;;;;;4.37;2.00;;;24.40;1.00;;;;;;5053179;28;20175;-77
2023/08/14 11:58:52;;;;;;;4.20;1.83;;;24.60;1.00;;;;;;5054172;28;20171;-76
2023/08/14 12:01:19;;;;;;;7.57;2.17;;;24.60;1.00;;;;;;5048837;28;20203;-76
2023/08/14 12:03:45;;;;;;;6.60;2.33;;;24.60;1.00;;;;;;5034776;28;20184;-76
2023/08/14 12:06:11;;;;;;;6.57;1.93;;;24.60;1.00;;;;;;5034225;28;20180;-77
2023/08/14 12:08:38;;;;;;;5.53;2.23;;;24.70;1.00;;;;;;5034392;28;20168;-77
2023/08/14 12:11:04;;;;;;;6.93;2.10;;;24.90;1.00;;;;;;5034058;28;20230;-76
2023/08/14 12:13:33;;;;;;;5.57;1.83;;;24.80;1.00;;;;;;5033909;28;20211;-76
2023/08/14 12:16:06;;;;;;;4.85;2.03;;;24.90;1.00;;;;;;5049173;28;20222;-77
2023/08/14 12:18:32;;;;;;;5.72;2.15;;;24.90;1.00;;;;;;5049394;28;20648;-77
2023/08/14 12:20:57;;;;;;;10.57;2.30;;;25.00;1.00;;;;;;5033852;28;20330;-76
2023/08/14 12:23:24;;;;;;;7.93;2.20;;;25.00;1.00;;;;;;5033769;28;20225;-76
2023/08/14 12:25:50;;;;;;;6.30;2.22;;;25.10;1.00;;;;;;5034049;28;20636;-76
2023/08/14 12:28:16;;;;;;;4.60;2.40;;;25.10;1.00;;;;;;5033644;28;20188;-76
2023/08/14 12:30:42;;;;;;;8.32;2.42;;;25.20;1.00;;;;;;5033457;28;20498;-76
2023/08/14 12:33:07;;;;;;;7.25;2.38;;;25.20;1.00;;;;;;5035320;28;20200;-77
2023/08/14 12:35:35;;;;;;;8.13;2.25;;;25.20;1.00;;;;;;5035129;28;20188;-78
2023/08/14 12:38:00;;;;;;;11.25;2.70;;;25.30;1.00;;;;;;5050105;28;20187;-76
2023/08/14 12:40:27;;;;;;;9.93;2.78;;;25.20;1.00;;;;;;5034285;28;20633;-77
2023/08/14 12:42:53;;;;;;;11.63;2.97;;;25.30;1.00;;;;;;5035152;28;20191;-77
2023/08/14 12:45:19;;;;;;;4.43;1.90;;;25.30;1.00;;;;;;5034508;28;20656;-77
2023/08/14 12:47:44;;;;;;;7.97;2.30;;;25.30;1.00;;;;;;5034765;28;20251;-77